createdAt,value
2018-08-23T00:00:33.784Z,0
2018-08-23T00:01:14.181Z,0
2018-08-23T00:01:54.621Z,0
2018-08-23T00:02:34.987Z,0
2018-08-23T00:03:15.379Z,0
2018-08-23T00:03:55.760Z,0
2018-08-23T00:04:36.183Z,0
2018-08-23T00:05:16.587Z,0
2018-08-23T00:05:57.045Z,0
2018-08-23T00:06:37.362Z,0
2018-08-23T00:07:17.814Z,0
2018-08-23T00:07:58.291Z,0
2018-08-23T00:08:38.646Z,0
2018-08-23T00:09:19.011Z,0
2018-08-23T00:09:59.420Z,0
2018-08-23T00:10:39.850Z,0
2018-08-23T00:11:20.275Z,0
2018-08-23T00:12:00.687Z,0
2018-08-23T00:12:41.059Z,0
2018-08-23T00:13:21.449Z,0
2018-08-23T00:14:01.826Z,0
2018-08-23T00:14:42.280Z,0
2018-08-23T00:15:22.673Z,0
2018-08-23T00:16:03.097Z,0
2018-08-23T00:16:43.516Z,0
2018-08-23T00:17:23.880Z,0
2018-08-23T00:18:04.262Z,0
2018-08-23T00:18:44.688Z,0
2018-08-23T00:19:25.064Z,0
2018-08-23T00:20:05.458Z,0
2018-08-23T00:20:45.786Z,0
2018-08-23T00:21:26.208Z,0
2018-08-23T00:22:06.633Z,0
2018-08-23T00:22:47.066Z,0
2018-08-23T00:23:27.429Z,0
2018-08-23T00:24:07.810Z,0
2018-08-23T00:24:48.193Z,0
2018-08-23T00:25:28.617Z,0
2018-08-23T00:26:09.069Z,0
2018-08-23T00:26:49.414Z,0
2018-08-23T00:27:29.803Z,0
2018-08-23T00:28:10.250Z,0
2018-08-23T00:28:50.609Z,0
2018-08-23T00:29:31.001Z,0
2018-08-23T00:30:11.356Z,0
2018-08-23T00:30:51.811Z,0
2018-08-23T00:31:32.182Z,0
2018-08-23T00:32:12.559Z,0
2018-08-23T00:32:52.961Z,0
2018-08-23T00:33:33.427Z,0
2018-08-23T00:34:13.810Z,0
2018-08-23T00:34:54.222Z,0
2018-08-23T00:35:34.608Z,0
2018-08-23T00:36:15.008Z,0
2018-08-23T00:36:55.469Z,0
2018-08-23T00:37:35.874Z,0
2018-08-23T00:38:16.305Z,0
2018-08-23T00:38:56.728Z,0
2018-08-23T00:39:37.162Z,0
2018-08-23T00:42:15.113Z,0
2018-08-23T00:42:55.560Z,0
2018-08-23T00:45:24.512Z,0
2018-08-23T00:46:04.938Z,0
2018-08-23T00:46:45.334Z,0
2018-08-23T00:47:25.662Z,0
2018-08-23T00:48:06.136Z,0
2018-08-23T00:48:46.496Z,0
2018-08-23T00:49:26.939Z,0
2018-08-23T00:50:07.348Z,0
2018-08-23T00:50:47.733Z,0
2018-08-23T00:51:28.124Z,0
2018-08-23T00:52:08.544Z,0
2018-08-23T00:52:48.940Z,0
2018-08-23T00:53:29.331Z,0
2018-08-23T00:54:09.712Z,0
2018-08-23T00:54:50.113Z,0
2018-08-23T00:55:30.507Z,0
2018-08-23T00:56:10.866Z,0
2018-08-23T00:56:51.284Z,0
2018-08-23T00:57:31.697Z,0
2018-08-23T00:58:12.083Z,0
2018-08-23T00:58:52.471Z,0
2018-08-23T00:59:32.837Z,0
2018-08-23T01:00:13.261Z,0
2018-08-23T01:00:53.660Z,0
2018-08-23T01:01:34.110Z,0
2018-08-23T01:02:14.478Z,0
2018-08-23T01:02:54.856Z,0
2018-08-23T01:03:35.223Z,0
2018-08-23T01:04:15.691Z,0
2018-08-23T01:04:56.059Z,0
2018-08-23T01:05:36.451Z,0
2018-08-23T01:06:16.839Z,0
2018-08-23T01:06:57.241Z,0
2018-08-23T01:07:37.652Z,0
2018-08-23T01:08:18.024Z,0
2018-08-23T01:08:58.501Z,0
2018-08-23T01:09:38.853Z,0
2018-08-23T01:10:19.301Z,0
2018-08-23T01:10:59.687Z,0
2018-08-23T01:11:40.070Z,0
2018-08-23T01:12:20.494Z,0
2018-08-23T01:13:00.954Z,0
2018-08-23T01:13:41.333Z,0
2018-08-23T01:14:21.733Z,0
2018-08-23T01:15:02.216Z,0
2018-08-23T01:15:42.562Z,0
2018-08-23T01:16:22.924Z,0
2018-08-23T01:17:03.485Z,0
2018-08-23T01:17:43.760Z,0
2018-08-23T01:18:24.154Z,0
2018-08-23T01:19:04.584Z,0
2018-08-23T01:19:44.993Z,0
2018-08-23T01:20:25.373Z,0
2018-08-23T01:21:05.718Z,0
2018-08-23T01:21:46.126Z,0
2018-08-23T01:22:26.500Z,0
2018-08-23T01:23:06.956Z,0
2018-08-23T01:23:47.339Z,0
2018-08-23T01:24:27.744Z,0
2018-08-23T01:25:08.169Z,0
2018-08-23T01:25:48.555Z,0
2018-08-23T01:26:28.922Z,0
2018-08-23T01:27:09.336Z,0
2018-08-23T01:27:49.730Z,0
2018-08-23T01:28:30.095Z,0
2018-08-23T01:29:10.513Z,0
2018-08-23T01:29:50.882Z,0
2018-08-23T01:30:31.238Z,0
2018-08-23T01:31:11.668Z,0
2018-08-23T01:31:52.080Z,0
2018-08-23T01:32:32.492Z,0
2018-08-23T01:33:12.856Z,0
2018-08-23T01:33:53.197Z,0
2018-08-23T01:34:33.641Z,0
2018-08-23T01:35:14.057Z,0
2018-08-23T01:35:54.484Z,0
2018-08-23T01:36:34.835Z,0
2018-08-23T01:37:15.205Z,0
2018-08-23T01:37:55.639Z,0
2018-08-23T01:38:36.036Z,0
2018-08-23T01:39:16.472Z,0
2018-08-23T01:39:56.874Z,0
2018-08-23T01:40:37.188Z,0
2018-08-23T01:41:17.610Z,0
2018-08-23T01:41:58.002Z,0
2018-08-23T01:42:38.417Z,0
2018-08-23T01:43:18.815Z,0
2018-08-23T01:43:59.218Z,0
2018-08-23T01:44:39.582Z,0
2018-08-23T01:45:20.072Z,0
2018-08-23T01:46:00.440Z,0
2018-08-23T01:46:40.866Z,0
2018-08-23T01:47:21.280Z,0
2018-08-23T01:48:01.680Z,0
2018-08-23T01:48:42.097Z,0
2018-08-23T01:49:22.525Z,0
2018-08-23T01:50:02.924Z,0
2018-08-23T01:50:43.294Z,0
2018-08-23T01:51:23.733Z,0
2018-08-23T01:52:04.129Z,0
2018-08-23T01:52:44.477Z,0
2018-08-23T01:53:24.985Z,0
2018-08-23T01:54:05.376Z,0
2018-08-23T01:54:45.727Z,0
2018-08-23T01:55:26.139Z,0
2018-08-23T01:56:06.532Z,0
2018-08-23T01:56:46.951Z,0
2018-08-23T01:57:27.345Z,0
2018-08-23T01:58:07.730Z,0
2018-08-23T01:58:48.175Z,0
2018-08-23T01:59:28.503Z,0
2018-08-23T02:00:08.900Z,0
2018-08-23T02:00:49.300Z,0
2018-08-23T02:01:29.718Z,0
2018-08-23T02:02:10.075Z,0
2018-08-23T02:02:50.536Z,0
2018-08-23T02:03:30.958Z,0
2018-08-23T02:04:11.370Z,0
2018-08-23T02:04:51.791Z,0
2018-08-23T02:05:32.217Z,0
2018-08-23T02:06:12.566Z,0
2018-08-23T02:06:52.966Z,0
2018-08-23T02:07:33.360Z,0
2018-08-23T02:08:13.717Z,0
2018-08-23T02:08:54.206Z,0
2018-08-23T02:09:34.576Z,0
2018-08-23T02:10:14.946Z,0
2018-08-23T02:10:55.377Z,0
2018-08-23T02:11:35.734Z,0
2018-08-23T02:12:16.189Z,0
2018-08-23T02:12:56.585Z,0
2018-08-23T02:13:36.955Z,0
2018-08-23T02:14:17.361Z,0
2018-08-23T02:14:57.787Z,0
2018-08-23T02:15:38.149Z,0
2018-08-23T02:16:18.634Z,0
2018-08-23T02:16:59.027Z,0
2018-08-23T02:17:39.477Z,0
2018-08-23T02:18:19.823Z,0
2018-08-23T02:19:00.333Z,0
2018-08-23T02:19:40.718Z,0
2018-08-23T02:20:21.112Z,0
2018-08-23T02:21:01.462Z,0
2018-08-23T02:21:41.942Z,0
2018-08-23T02:22:22.336Z,0
2018-08-23T02:23:02.674Z,0
2018-08-23T02:23:43.097Z,0
2018-08-23T02:24:23.534Z,0
2018-08-23T02:25:03.952Z,0
2018-08-23T02:25:44.289Z,0
2018-08-23T02:26:24.757Z,0
2018-08-23T02:27:05.119Z,0
2018-08-23T02:27:45.543Z,0
2018-08-23T02:28:25.963Z,0
2018-08-23T02:29:06.323Z,0
2018-08-23T02:29:46.721Z,0
2018-08-23T02:30:27.145Z,0
2018-08-23T02:31:07.480Z,0
2018-08-23T02:31:47.906Z,0
2018-08-23T02:32:28.393Z,0
2018-08-23T02:33:08.764Z,0
2018-08-23T02:33:49.168Z,0
2018-08-23T02:34:29.583Z,0
2018-08-23T02:35:10.049Z,0
2018-08-23T02:35:50.426Z,0
2018-08-23T02:36:30.858Z,0
2018-08-23T02:37:11.205Z,0
2018-08-23T02:37:51.615Z,0
2018-08-23T02:38:32.028Z,0
2018-08-23T02:39:12.452Z,0
2018-08-23T02:39:52.881Z,0
2018-08-23T02:40:33.215Z,0
2018-08-23T02:41:13.630Z,0
2018-08-23T02:41:54.030Z,0
2018-08-23T02:42:34.472Z,0
2018-08-23T02:43:14.906Z,0
2018-08-23T02:43:55.299Z,0
2018-08-23T02:44:35.714Z,0
2018-08-23T02:45:16.032Z,0
2018-08-23T02:45:56.427Z,0
2018-08-23T02:46:36.825Z,0
2018-08-23T02:47:17.276Z,0
2018-08-23T02:47:57.668Z,0
2018-08-23T02:48:38.056Z,0
2018-08-23T02:49:18.422Z,0
2018-08-23T02:49:58.864Z,0
2018-08-23T02:50:39.295Z,0
2018-08-23T02:51:19.681Z,0
2018-08-23T02:52:00.086Z,0
2018-08-23T02:52:40.500Z,0
2018-08-23T02:53:20.909Z,0
2018-08-23T02:54:01.294Z,0
2018-08-23T02:54:41.698Z,0
2018-08-23T02:55:22.060Z,0
2018-08-23T02:56:02.465Z,0
2018-08-23T02:56:42.864Z,0
2018-08-23T02:57:23.310Z,0
2018-08-23T02:58:03.691Z,0
2018-08-23T02:58:44.097Z,0
2018-08-23T02:59:24.489Z,0
2018-08-23T03:00:04.876Z,0
2018-08-23T03:00:45.258Z,0
2018-08-23T03:01:25.666Z,0
2018-08-23T03:02:06.062Z,0
2018-08-23T03:02:46.472Z,0
2018-08-23T03:03:26.885Z,0
2018-08-23T03:04:07.298Z,0
2018-08-23T03:04:47.699Z,0
2018-08-23T03:05:28.099Z,0
2018-08-23T03:06:08.509Z,0
2018-08-23T03:06:48.930Z,0
2018-08-23T03:07:29.289Z,0
2018-08-23T03:08:09.689Z,0
2018-08-23T03:08:50.132Z,0
2018-08-23T03:09:30.495Z,0
2018-08-23T03:10:10.915Z,0
2018-08-23T03:10:51.304Z,0
2018-08-23T03:11:31.799Z,0
2018-08-23T03:12:12.167Z,0
2018-08-23T03:12:52.580Z,0
2018-08-23T03:13:32.965Z,0
2018-08-23T03:14:13.493Z,0
2018-08-23T03:14:53.787Z,0
2018-08-23T03:15:34.253Z,0
2018-08-23T03:16:14.607Z,0
2018-08-23T03:16:55.020Z,0
2018-08-23T03:17:35.396Z,0
2018-08-23T03:18:15.792Z,0
2018-08-23T03:18:56.191Z,0
2018-08-23T03:19:36.546Z,0
2018-08-23T03:20:16.943Z,0
2018-08-23T03:20:57.374Z,0
2018-08-23T03:21:37.767Z,0
2018-08-23T03:22:18.130Z,0
2018-08-23T03:22:58.603Z,0
2018-08-23T03:23:38.961Z,0
2018-08-23T03:24:19.409Z,0
2018-08-23T03:24:59.775Z,0
2018-08-23T03:25:40.231Z,0
2018-08-23T03:26:20.568Z,0
2018-08-23T03:27:01.001Z,0
2018-08-23T03:27:41.363Z,0
2018-08-23T03:28:21.791Z,0
2018-08-23T03:29:02.147Z,0
2018-08-23T03:29:42.542Z,0
2018-08-23T03:30:22.954Z,0
2018-08-23T03:31:03.430Z,0
2018-08-23T03:31:43.804Z,0
2018-08-23T03:32:24.221Z,0
2018-08-23T03:33:04.599Z,0
2018-08-23T03:33:44.990Z,0
2018-08-23T03:34:25.413Z,0
2018-08-23T03:35:05.774Z,0
2018-08-23T03:35:46.197Z,0
2018-08-23T03:36:26.615Z,0
2018-08-23T03:37:07.066Z,0
2018-08-23T03:37:47.472Z,0
2018-08-23T03:38:27.887Z,0
2018-08-23T03:39:08.254Z,0
2018-08-23T03:39:48.708Z,0
2018-08-23T03:40:29.069Z,0
2018-08-23T03:41:09.525Z,0
2018-08-23T03:41:49.983Z,0
2018-08-23T03:42:30.414Z,0
2018-08-23T03:43:10.824Z,0
2018-08-23T03:43:51.250Z,0
2018-08-23T03:44:31.630Z,0
2018-08-23T03:45:12.066Z,0
2018-08-23T03:45:52.402Z,0
2018-08-23T03:46:32.784Z,0
2018-08-23T03:47:13.197Z,0
2018-08-23T03:47:53.619Z,0
2018-08-23T03:48:34.081Z,0
2018-08-23T03:49:14.411Z,0
2018-08-23T03:49:54.826Z,0
2018-08-23T03:50:35.223Z,0
2018-08-23T03:51:15.683Z,0
2018-08-23T03:51:56.109Z,0
2018-08-23T03:52:36.511Z,0
2018-08-23T03:53:16.938Z,0
2018-08-23T03:53:57.281Z,0
2018-08-23T03:54:37.711Z,0
2018-08-23T03:55:18.072Z,0
2018-08-23T03:55:58.492Z,0
2018-08-23T03:56:38.895Z,0
2018-08-23T03:57:19.278Z,0
2018-08-23T03:57:59.663Z,0
2018-08-23T03:58:40.103Z,0
2018-08-23T03:59:20.477Z,0
2018-08-23T04:00:00.874Z,0
2018-08-23T04:00:41.226Z,0
2018-08-23T04:01:21.667Z,0
2018-08-23T04:02:02.032Z,0
2018-08-23T04:02:42.466Z,0
2018-08-23T04:03:22.881Z,0
2018-08-23T04:04:03.278Z,0
2018-08-23T04:04:43.667Z,0
2018-08-23T04:05:24.085Z,0
2018-08-23T04:06:04.528Z,0
2018-08-23T04:06:44.954Z,0
2018-08-23T04:07:25.315Z,0
2018-08-23T04:08:05.711Z,0
2018-08-23T04:08:46.174Z,0
2018-08-23T04:09:26.547Z,0
2018-08-23T04:10:06.884Z,0
2018-08-23T04:10:47.345Z,0
2018-08-23T04:11:27.693Z,0
2018-08-23T04:12:08.172Z,0
2018-08-23T04:12:48.518Z,0
2018-08-23T04:13:28.893Z,0
2018-08-23T04:14:09.356Z,0
2018-08-23T04:14:49.774Z,0
2018-08-23T04:15:30.349Z,0
2018-08-23T04:16:10.696Z,0
2018-08-23T04:16:51.053Z,0
2018-08-23T04:17:31.467Z,0
2018-08-23T04:18:11.904Z,0
2018-08-23T04:18:52.344Z,0
2018-08-23T04:19:32.751Z,0
2018-08-23T04:20:13.188Z,0
2018-08-23T04:20:53.564Z,0
2018-08-23T04:21:33.957Z,0
2018-08-23T04:22:14.396Z,0
2018-08-23T04:22:54.925Z,0
2018-08-23T04:23:35.214Z,0
2018-08-23T04:24:15.645Z,0
2018-08-23T04:24:55.987Z,0
2018-08-23T04:25:36.450Z,0
2018-08-23T04:26:16.813Z,0
2018-08-23T04:26:57.183Z,0
2018-08-23T04:27:37.650Z,0
2018-08-23T04:28:18.025Z,0
2018-08-23T05:21:07.030Z,30
2018-08-23T05:23:35.397Z,35
2018-08-23T05:24:27.893Z,40
2018-08-23T05:25:20.357Z,40
2018-08-23T05:26:12.940Z,45
2018-08-23T05:27:05.199Z,50
2018-08-23T05:27:57.468Z,50
2018-08-23T05:28:51.419Z,55
2018-08-23T05:29:44.812Z,60
2018-08-23T05:30:41.563Z,70
2018-08-23T05:31:40.260Z,90
2018-08-23T05:32:33.038Z,100
2018-08-23T05:36:48.278Z,120
2018-08-23T05:37:40.617Z,115
2018-08-23T05:38:32.714Z,120
2018-08-23T05:39:25.261Z,120
2018-08-23T05:40:16.897Z,125
2018-08-23T05:41:03.729Z,125
2018-08-23T05:41:44.161Z,125
2018-08-23T05:42:24.565Z,130
2018-08-23T05:43:05.052Z,135
2018-08-23T05:43:45.447Z,135
2018-08-23T05:44:25.770Z,140
2018-08-23T05:45:06.878Z,145
2018-08-23T05:45:47.260Z,155
2018-08-23T05:46:27.637Z,155
2018-08-23T05:47:08.018Z,160
2018-08-23T05:47:48.557Z,165
2018-08-23T05:48:28.980Z,165
2018-08-23T05:49:09.447Z,170
2018-08-23T05:49:49.974Z,170
2018-08-23T05:50:30.359Z,175
2018-08-23T05:51:10.973Z,180
2018-08-23T05:51:51.456Z,195
2018-08-23T05:52:31.912Z,195
2018-08-23T05:53:12.525Z,205
2018-08-23T05:53:53.047Z,210
2018-08-23T05:54:33.561Z,215
2018-08-23T05:55:13.877Z,225
2018-08-23T05:55:54.407Z,230
2018-08-23T05:56:34.955Z,235
2018-08-23T05:57:15.285Z,245
2018-08-23T05:57:55.697Z,255
2018-08-23T05:58:36.244Z,265
2018-08-23T05:59:16.778Z,275
2018-08-23T06:00:11.805Z,285
2018-08-23T06:00:52.303Z,290
2018-08-23T06:01:32.776Z,300
2018-08-23T06:02:13.563Z,305
2018-08-23T06:02:54.121Z,310
2018-08-23T06:03:35.183Z,315
2018-08-23T06:04:15.737Z,330
2018-08-23T06:04:56.439Z,340
2018-08-23T06:05:37.548Z,335
2018-08-23T06:06:17.717Z,350
2018-08-23T06:06:58.801Z,355
2018-08-23T06:07:41.109Z,360
2018-08-23T06:08:21.200Z,365
2018-08-23T06:09:02.797Z,360
2018-08-23T06:09:43.801Z,370
2018-08-23T06:10:24.671Z,380
2018-08-23T06:11:05.598Z,385
2018-08-23T06:11:46.233Z,385
2018-08-23T06:12:26.976Z,380
2018-08-23T06:13:08.097Z,385
2018-08-23T06:13:48.762Z,385
2018-08-23T06:14:30.368Z,400
2018-08-23T06:15:10.516Z,400
2018-08-23T06:15:51.396Z,405
2018-08-23T06:16:31.924Z,425
2018-08-23T06:17:14.373Z,435
2018-08-23T06:17:54.570Z,435
2018-08-23T06:18:35.505Z,435
2018-08-23T06:19:17.787Z,445
2018-08-23T06:19:58.445Z,450
2018-08-23T06:20:39.226Z,455
2018-08-23T06:21:20.173Z,465
2018-08-23T06:22:01.371Z,470
2018-08-23T06:22:41.460Z,480
2018-08-23T06:23:23.298Z,495
2018-08-23T06:24:03.526Z,515
2018-08-23T06:24:44.004Z,515
2018-08-23T06:25:24.347Z,515
2018-08-23T06:26:04.855Z,525
2018-08-23T06:26:45.311Z,515
2018-08-23T06:27:25.724Z,520
2018-08-23T06:28:06.194Z,540
2018-08-23T06:28:46.493Z,560
2018-08-23T06:29:26.937Z,585
2018-08-23T06:30:07.491Z,575
2018-08-23T06:30:47.876Z,590
2018-08-23T06:31:28.405Z,610
2018-08-23T06:32:08.916Z,625
2018-08-23T06:32:49.426Z,630
2018-08-23T06:33:29.843Z,630
2018-08-23T06:34:10.284Z,625
2018-08-23T06:34:50.744Z,630
2018-08-23T06:35:31.261Z,645
2018-08-23T06:36:11.678Z,655
2018-08-23T06:36:52.010Z,655
2018-08-23T06:37:32.623Z,655
2018-08-23T06:38:12.977Z,640
2018-08-23T06:38:53.562Z,625
2018-08-23T06:39:33.893Z,605
2018-08-23T06:40:14.338Z,590
2018-08-23T06:40:54.816Z,590
2018-08-23T06:41:35.168Z,600
2018-08-23T06:42:15.649Z,615
2018-08-23T06:42:56.059Z,615
2018-08-23T06:43:36.483Z,630
2018-08-23T06:44:16.861Z,655
2018-08-23T06:44:57.279Z,670
2018-08-23T06:45:37.688Z,680
2018-08-23T06:46:18.113Z,675
2018-08-23T06:46:58.732Z,685
2018-08-23T06:47:39.149Z,695
2018-08-23T06:48:19.580Z,695
2018-08-23T06:49:00.074Z,595
2018-08-23T06:49:41.117Z,445
2018-08-23T06:50:21.038Z,360
2018-08-23T06:51:01.504Z,345
2018-08-23T06:51:42.109Z,340
2018-08-23T06:52:32.896Z,335
2018-08-23T06:53:13.118Z,335
2018-08-23T06:54:10.143Z,345
2018-08-23T06:54:52.336Z,340
2018-08-23T06:55:33.337Z,345
2018-08-23T06:56:13.799Z,345
2018-08-23T06:56:54.416Z,350
2018-08-23T06:57:34.768Z,355
2018-08-23T06:58:15.330Z,355
2018-08-23T06:58:55.805Z,360
2018-08-23T06:59:36.224Z,365
2018-08-23T07:00:17.904Z,365
2018-08-23T07:01:05.399Z,365
2018-08-23T07:01:46.073Z,365
2018-08-23T07:02:26.406Z,370
2018-08-23T07:03:06.916Z,385
2018-08-23T07:03:47.396Z,380
2018-08-23T07:04:27.776Z,375
2018-08-23T07:05:08.161Z,375
2018-08-23T07:05:48.564Z,385
2018-08-23T07:06:29.029Z,405
2018-08-23T07:07:09.506Z,400
2018-08-23T07:07:49.919Z,390
2018-08-23T07:08:30.354Z,380
2018-08-23T07:09:10.774Z,380
2018-08-23T07:09:51.174Z,375
2018-08-23T07:12:57.982Z,385
2018-08-23T07:13:50.611Z,390
2018-08-23T07:14:43.658Z,395
2018-08-23T07:15:36.159Z,405
2018-08-23T07:16:28.628Z,410
2018-08-23T07:17:22.968Z,405
2018-08-23T07:18:18.022Z,405
2018-08-23T07:19:10.481Z,405
2018-08-23T07:20:03.129Z,395
2018-08-23T07:20:57.056Z,390
2018-08-23T07:21:45.911Z,385
2018-08-23T07:26:37.538Z,335
2018-08-23T07:27:29.802Z,305
2018-08-23T07:28:21.717Z,290
2018-08-23T07:29:13.952Z,270
2018-08-23T07:29:59.576Z,260
2018-08-23T07:30:39.945Z,250
2018-08-23T07:31:20.702Z,245
2018-08-23T07:34:04.576Z,230
2018-08-23T07:34:57.699Z,220
2018-08-23T07:35:50.339Z,215
2018-08-23T07:38:36.300Z,200
2018-08-23T07:39:29.488Z,195
2018-08-23T07:40:22.166Z,190
2018-08-23T07:41:13.588Z,195
2018-08-23T07:41:53.642Z,185
2018-08-23T07:42:33.998Z,185
2018-08-23T07:43:14.423Z,185
2018-08-23T07:43:55.089Z,180
2018-08-23T07:44:35.442Z,175
2018-08-23T07:45:15.974Z,175
2018-08-23T07:45:57.416Z,170
2018-08-23T07:46:37.392Z,165
2018-08-23T07:47:17.720Z,165
2018-08-23T07:47:58.219Z,165
2018-08-23T07:48:38.876Z,165
2018-08-23T07:49:19.705Z,160
2018-08-23T07:49:59.949Z,155
2018-08-23T07:50:40.374Z,155
2018-08-23T07:51:20.844Z,155
2018-08-23T07:52:04.756Z,150
2018-08-23T07:52:45.549Z,150
2018-08-23T07:53:26.292Z,150
2018-08-23T07:54:06.309Z,150
2018-08-23T07:54:46.811Z,145
2018-08-23T07:55:27.282Z,145
2018-08-23T07:56:07.673Z,145
2018-08-23T07:56:48.251Z,145
2018-08-23T07:57:28.941Z,140
2018-08-23T07:58:09.495Z,140
2018-08-23T07:58:50.019Z,140
2018-08-23T07:59:30.576Z,140
2018-08-23T08:00:10.937Z,140
2018-08-23T08:00:51.590Z,140
2018-08-23T08:01:33.930Z,135
2018-08-23T08:02:13.847Z,135
2018-08-23T08:02:55.388Z,135
2018-08-23T08:03:35.879Z,135
2018-08-23T08:04:16.081Z,135
2018-08-23T08:04:56.402Z,135
2018-08-23T08:05:37.071Z,135
2018-08-23T08:06:17.523Z,135
2018-08-23T08:06:57.940Z,135
2018-08-23T08:07:38.369Z,130
2018-08-23T08:08:18.813Z,130
2018-08-23T08:08:59.220Z,130
2018-08-23T08:09:39.896Z,125
2018-08-23T08:10:20.394Z,130
2018-08-23T08:11:01.034Z,125
2018-08-23T08:11:41.490Z,130
2018-08-23T08:12:22.227Z,130
2018-08-23T08:13:02.974Z,130
2018-08-23T08:13:42.886Z,125
2018-08-23T08:14:23.392Z,125
2018-08-23T08:15:03.900Z,130
2018-08-23T08:15:44.692Z,130
2018-08-23T08:16:25.017Z,130
2018-08-23T08:17:05.666Z,130
2018-08-23T08:17:46.232Z,130
2018-08-23T08:18:26.870Z,130
2018-08-23T08:19:19.390Z,125
2018-08-23T08:19:59.818Z,125
2018-08-23T08:20:40.346Z,120
2018-08-23T08:21:20.681Z,125
2018-08-23T08:22:01.247Z,110
2018-08-23T08:22:41.613Z,105
2018-08-23T08:23:21.950Z,95
2018-08-23T08:26:21.338Z,100
2018-08-23T08:27:14.923Z,105
2018-08-23T08:28:08.375Z,105
2018-08-23T08:29:00.922Z,110
2018-08-23T08:29:53.828Z,120
2018-08-23T08:30:47.590Z,105
2018-08-23T08:32:04.452Z,95
2018-08-23T08:34:17.284Z,100
2018-08-23T08:36:48.184Z,110
2018-08-23T08:37:39.809Z,125
2018-08-23T08:38:33.861Z,125
2018-08-23T08:39:27.746Z,115
2018-08-23T08:40:20.224Z,120
2018-08-23T08:41:10.453Z,115
2018-08-23T08:41:52.582Z,120
2018-08-23T08:42:32.372Z,115
2018-08-23T08:43:12.903Z,105
2018-08-23T08:43:53.248Z,110
2018-08-23T08:44:33.678Z,110
2018-08-23T08:45:14.287Z,130
2018-08-23T08:45:56.553Z,110
2018-08-23T08:46:43.164Z,120
2018-08-23T08:47:24.592Z,120
2018-08-23T08:48:04.909Z,120
2018-08-23T08:48:45.601Z,110
2018-08-23T08:49:27.438Z,115
2018-08-23T08:50:08.276Z,110
2018-08-23T08:50:48.644Z,100
2018-08-23T08:51:29.083Z,100
2018-08-23T08:52:11.611Z,105
2018-08-23T08:52:55.748Z,105
2018-08-23T08:55:43.121Z,120
2018-08-23T08:56:23.655Z,115
2018-08-23T08:59:13.886Z,125
2018-08-23T09:00:23.578Z,110
2018-08-23T09:01:46.107Z,100
2018-08-23T09:02:45.208Z,105
2018-08-23T09:03:44.785Z,100
2018-08-23T09:09:39.535Z,105
2018-08-23T09:10:37.192Z,105
2018-08-23T09:15:24.498Z,100
2018-08-23T09:16:30.634Z,105
2018-08-23T09:17:32.740Z,105
2018-08-23T09:18:26.818Z,105
2018-08-23T09:19:25.883Z,100
2018-08-23T09:20:22.719Z,100
2018-08-23T09:21:22.096Z,100
2018-08-23T09:22:25.505Z,100
2018-08-23T09:23:30.692Z,100
2018-08-23T09:24:35.179Z,100
2018-08-23T09:25:35.232Z,100
2018-08-23T09:26:39.707Z,95
2018-08-23T09:41:37.353Z,90
2018-08-23T09:42:41.251Z,70
2018-08-23T09:43:49.057Z,85
2018-08-23T09:45:06.101Z,75
2018-08-23T09:56:04.782Z,90
2018-08-23T09:56:45.413Z,85
2018-08-23T09:57:25.986Z,65
2018-08-23T09:58:06.456Z,65
2018-08-23T09:58:47.346Z,60
2018-08-23T09:59:28.647Z,55
2018-08-23T10:00:09.325Z,55
2018-08-23T10:00:50.486Z,55
2018-08-23T10:01:35.666Z,55
2018-08-23T10:02:15.583Z,80
2018-08-23T10:02:57.158Z,85
2018-08-23T10:03:43.580Z,80
2018-08-23T10:04:24.928Z,85
2018-08-23T10:05:05.289Z,85
2018-08-23T10:05:45.787Z,85
2018-08-23T10:06:26.231Z,85
2018-08-23T10:07:06.788Z,85
2018-08-23T10:07:47.532Z,80
2018-08-23T10:08:29.112Z,80
2018-08-23T10:09:11.386Z,80
2018-08-23T10:09:57.964Z,80
2018-08-23T10:10:38.321Z,85
2018-08-23T10:11:25.729Z,80
2018-08-23T10:12:07.983Z,80
2018-08-23T10:12:48.861Z,80
2018-08-23T10:13:29.696Z,85
2018-08-23T10:14:10.115Z,80
2018-08-23T10:14:50.924Z,80
2018-08-23T10:15:31.671Z,80
2018-08-23T10:20:12.620Z,80
2018-08-23T10:21:09.284Z,80
2018-08-23T10:23:45.582Z,80
2018-08-23T10:24:47.163Z,80
2018-08-23T10:25:56.735Z,75
2018-08-23T10:28:17.953Z,75
2018-08-23T10:28:58.411Z,75
2018-08-23T10:29:38.980Z,75
2018-08-23T11:07:44.756Z,70
2018-08-23T11:08:25.967Z,70
2018-08-23T11:09:06.689Z,70
2018-08-23T11:09:47.325Z,70
2018-08-23T11:10:27.562Z,70
2018-08-23T11:11:07.927Z,70
2018-08-23T11:11:49.070Z,70
2018-08-23T11:12:30.214Z,70
2018-08-23T11:13:10.214Z,70
2018-08-23T11:13:51.490Z,70
2018-08-23T11:14:32.427Z,70
2018-08-23T11:15:13.121Z,70
2018-08-23T11:15:53.294Z,65
2018-08-23T11:16:33.818Z,65
2018-08-23T11:17:15.239Z,70
2018-08-23T11:17:55.554Z,70
2018-08-23T11:18:36.157Z,65
2018-08-23T11:19:19.213Z,65
2018-08-23T11:19:59.733Z,50
2018-08-23T11:20:40.606Z,65
2018-08-23T11:21:21.455Z,65
2018-08-23T11:22:01.910Z,70
2018-08-23T11:22:43.029Z,70
2018-08-23T11:23:23.605Z,70
2018-08-23T11:24:04.219Z,70
2018-08-23T11:24:45.235Z,70
2018-08-23T11:25:26.564Z,70
2018-08-23T11:26:07.388Z,50
2018-08-23T11:26:50.060Z,45
2018-08-23T11:27:30.047Z,70
2018-08-23T11:28:10.983Z,75
2018-08-23T11:28:51.539Z,60
2018-08-23T11:29:31.980Z,70
2018-08-23T11:30:13.449Z,65
2018-08-23T11:30:54.896Z,60
2018-08-23T11:31:34.720Z,55
2018-08-23T11:32:15.496Z,60
2018-08-23T11:32:56.139Z,55
2018-08-23T11:33:37.176Z,50
2018-08-23T11:34:20.922Z,45
2018-08-23T11:35:01.300Z,45
2018-08-23T11:35:43.756Z,45
2018-08-23T11:36:24.976Z,70
2018-08-23T11:37:05.484Z,70
2018-08-23T11:37:46.960Z,70
2018-08-23T11:38:27.436Z,55
2018-08-23T11:39:07.963Z,65
2018-08-23T11:39:50.415Z,65
2018-08-23T11:40:32.536Z,70
2018-08-23T11:41:14.974Z,75
2018-08-23T11:48:20.038Z,75
2018-08-23T11:49:17.333Z,70
2018-08-23T11:50:14.171Z,70
2018-08-23T11:51:08.823Z,70
2018-08-23T11:52:02.084Z,70
2018-08-23T11:52:56.818Z,70
2018-08-23T11:53:57.566Z,70
2018-08-23T11:54:49.198Z,50
2018-08-23T11:55:47.230Z,65
2018-08-23T11:56:40.380Z,60
2018-08-23T11:57:24.696Z,50
2018-08-23T11:58:08.757Z,55
2018-08-23T11:58:49.804Z,70
2018-08-23T12:04:37.812Z,70
2018-08-23T12:05:31.181Z,60
2018-08-23T12:06:28.795Z,55
2018-08-23T12:07:21.268Z,50
2018-08-23T12:08:19.006Z,45
2018-08-23T12:09:14.153Z,65
2018-08-23T12:10:10.232Z,50
2018-08-23T12:14:05.831Z,45
2018-08-23T12:18:24.252Z,70
2018-08-23T12:19:05.043Z,70
2018-08-23T12:19:46.028Z,75
2018-08-23T12:20:26.642Z,75
2018-08-23T12:21:08.866Z,75
2018-08-23T12:21:50.544Z,75
2018-08-23T12:22:32.299Z,75
2018-08-23T12:23:12.480Z,75
2018-08-23T12:23:52.911Z,75
2018-08-23T12:26:46.024Z,70
2018-08-23T12:27:44.051Z,70
2018-08-23T12:30:58.270Z,75
2018-08-23T12:31:47.132Z,75
2018-08-23T12:32:27.979Z,55
2018-08-23T12:33:09.975Z,55
2018-08-23T12:33:49.932Z,70
2018-08-23T12:34:51.963Z,55
2018-08-23T12:35:34.668Z,50
2018-08-23T12:36:15.397Z,50
2018-08-23T12:36:56.617Z,65
2018-08-23T12:38:07.101Z,70
2018-08-23T12:38:48.866Z,55
2018-08-23T12:41:45.069Z,50
2018-08-23T12:42:58.104Z,45
2018-08-23T12:51:25.392Z,75
2018-08-23T12:52:05.938Z,75
2018-08-23T12:52:47.521Z,75
2018-08-23T12:53:29.620Z,70
2018-08-23T12:54:11.052Z,50
2018-08-23T12:54:52.464Z,70
2018-08-23T12:55:33.441Z,65
2018-08-23T12:56:13.935Z,65
2018-08-23T12:56:54.311Z,65
2018-08-23T12:57:35.974Z,60
2018-08-23T12:58:17.129Z,60
2018-08-23T12:58:58.452Z,60
2018-08-23T12:59:38.765Z,60
2018-08-23T13:00:20.670Z,60
2018-08-23T13:01:01.294Z,60
2018-08-23T13:01:42.074Z,65
2018-08-23T13:02:22.903Z,60
2018-08-23T13:03:03.456Z,60
2018-08-23T13:03:44.222Z,60
2018-08-23T13:04:25.113Z,60
2018-08-23T13:05:05.708Z,60
2018-08-23T13:05:46.801Z,60
2018-08-23T13:06:27.852Z,60
2018-08-23T13:07:08.549Z,60
2018-08-23T13:07:50.966Z,60
2018-08-23T13:08:31.149Z,60
2018-08-23T13:09:13.149Z,60
2018-08-23T13:09:54.140Z,60
2018-08-23T13:10:35.421Z,60
2018-08-23T13:11:16.693Z,60
2018-08-23T13:11:57.565Z,55
2018-08-23T13:12:39.994Z,55
2018-08-23T13:13:20.439Z,60
2018-08-23T13:14:01.147Z,60
2018-08-23T13:14:41.831Z,60
2018-08-23T13:15:22.235Z,60
2018-08-23T13:16:02.921Z,65
2018-08-23T13:16:43.936Z,60
2018-08-23T13:17:25.281Z,60
2018-08-23T13:18:05.877Z,65
2018-08-23T13:18:46.751Z,65
2018-08-23T13:19:27.341Z,65
2018-08-23T13:20:07.766Z,50
2018-08-23T13:22:48.572Z,65